createdAt,value
2022-09-03T00:00:30.116Z,17.1
2022-09-03T00:01:30.121Z,17
2022-09-03T00:02:30.208Z,17
2022-09-03T00:03:30.094Z,17
2022-09-03T00:04:30.134Z,17
2022-09-03T00:05:30.171Z,17
2022-09-03T00:06:30.160Z,17
2022-09-03T00:07:30.175Z,17
2022-09-03T00:08:30.192Z,16.9
2022-09-03T00:09:30.174Z,16.9
2022-09-03T00:10:30.183Z,17
2022-09-03T00:11:30.198Z,17.1
2022-09-03T00:12:30.230Z,17.1
2022-09-03T00:13:30.223Z,17.1
2022-09-03T00:14:30.241Z,17
2022-09-03T00:15:30.178Z,17
2022-09-03T00:16:30.127Z,17
2022-09-03T00:17:30.261Z,17
2022-09-03T00:18:30.250Z,17
2022-09-03T00:19:30.151Z,17
2022-09-03T00:20:30.168Z,17
2022-09-03T00:21:30.190Z,17
2022-09-03T00:22:30.157Z,17
2022-09-03T00:23:30.123Z,17
2022-09-03T00:24:30.171Z,17
2022-09-03T00:25:30.218Z,17.1
2022-09-03T00:26:30.198Z,17
2022-09-03T00:27:30.226Z,17
2022-09-03T00:28:30.234Z,17
2022-09-03T00:29:30.217Z,16.9
2022-09-03T00:30:30.170Z,17
2022-09-03T00:31:30.278Z,17.1
2022-09-03T00:32:30.163Z,17
2022-09-03T00:33:30.163Z,17
2022-09-03T00:34:30.141Z,17
2022-09-03T00:35:30.156Z,16.9
2022-09-03T00:36:30.151Z,17
2022-09-03T00:37:33.704Z,16.9
2022-09-03T00:38:30.195Z,17
2022-09-03T00:39:30.211Z,16.9
2022-09-03T00:40:30.218Z,16.9
2022-09-03T00:41:30.187Z,16.9
2022-09-03T00:42:30.213Z,16.9
2022-09-03T00:43:30.133Z,16.8
2022-09-03T00:44:30.206Z,16.8
2022-09-03T00:45:30.232Z,16.8
2022-09-03T00:46:30.341Z,16.8
2022-09-03T00:47:30.151Z,16.8
2022-09-03T00:48:30.256Z,16.8
2022-09-03T00:49:30.182Z,16.8
2022-09-03T00:50:30.183Z,16.7
2022-09-03T00:51:30.267Z,16.7
2022-09-03T00:52:33.533Z,16.7
2022-09-03T00:53:30.144Z,16.7
2022-09-03T00:54:30.153Z,16.8
2022-09-03T00:55:30.154Z,16.7
2022-09-03T00:56:30.205Z,16.7
2022-09-03T00:57:30.147Z,16.7
2022-09-03T00:58:30.257Z,16.7
2022-09-03T00:59:30.135Z,16.7
2022-09-03T01:00:30.151Z,16.7
2022-09-03T01:01:30.335Z,16.7
2022-09-03T01:02:30.281Z,16.7
2022-09-03T01:03:30.142Z,16.6
2022-09-03T01:04:30.124Z,16.6
2022-09-03T01:05:30.184Z,16.7
2022-09-03T01:06:30.144Z,16.7
2022-09-03T01:07:30.220Z,16.6
2022-09-03T01:08:30.142Z,16.6
2022-09-03T01:09:30.135Z,16.7
2022-09-03T01:10:30.184Z,16.7
2022-09-03T01:11:30.207Z,16.7
2022-09-03T01:12:30.163Z,16.7
2022-09-03T01:13:30.132Z,16.6
2022-09-03T01:14:30.167Z,16.5
2022-09-03T01:15:30.266Z,16.6
2022-09-03T01:16:30.147Z,16.6
2022-09-03T01:17:30.151Z,16.6
2022-09-03T01:18:30.139Z,16.6
2022-09-03T01:19:30.145Z,16.6
2022-09-03T01:20:30.150Z,16.6
2022-09-03T01:21:30.159Z,16.5
2022-09-03T01:22:30.144Z,16.5
2022-09-03T01:23:30.154Z,16.5
2022-09-03T01:24:30.152Z,16.5
2022-09-03T01:25:30.162Z,16.4
2022-09-03T01:33:30.146Z,16.4
2022-09-03T01:34:30.106Z,16.5
2022-09-03T01:35:40.163Z,16.4
2022-09-03T01:36:33.655Z,16.4
2022-09-03T01:37:30.133Z,16.3
2022-09-03T01:38:30.116Z,16.3
2022-09-03T01:39:30.211Z,16.3
2022-09-03T01:40:30.225Z,16.3
2022-09-03T01:41:30.103Z,16.3
2022-09-03T01:42:30.096Z,16.3
2022-09-03T01:43:30.114Z,16.3
2022-09-03T01:44:30.108Z,16.4
2022-09-03T01:45:30.090Z,16.4
2022-09-03T01:46:30.287Z,16.4
2022-09-03T01:47:30.108Z,16.4
2022-09-03T01:48:30.106Z,16.3
2022-09-03T01:49:30.108Z,16.3
2022-09-03T01:50:30.109Z,16.2
2022-09-03T01:51:30.134Z,16.2
2022-09-03T01:52:30.111Z,16.2
2022-09-03T01:53:30.136Z,16.2
2022-09-03T01:54:30.140Z,16.2
2022-09-03T01:55:30.132Z,16.2
2022-09-03T01:56:30.108Z,16.2
2022-09-03T01:57:35.444Z,16.2
2022-09-03T01:58:30.160Z,16.1
2022-09-03T01:59:30.110Z,16.2
2022-09-03T02:00:30.133Z,16.2
2022-09-03T02:01:30.186Z,16.2
2022-09-03T02:02:30.237Z,16.2
2022-09-03T02:03:30.117Z,16.2
2022-09-03T02:04:30.112Z,16.2
2022-09-03T02:05:30.139Z,16.3
2022-09-03T02:06:30.118Z,16.2
2022-09-03T02:07:30.150Z,16.2
2022-09-03T02:08:30.135Z,16.2
2022-09-03T02:09:32.758Z,16.1
2022-09-03T02:10:30.113Z,16.1
2022-09-03T02:11:30.149Z,16.3
2022-09-03T02:12:30.113Z,16.3
2022-09-03T02:13:30.158Z,16.3
2022-09-03T02:14:30.144Z,16.2
2022-09-03T02:15:30.181Z,16.3
2022-09-03T02:16:30.102Z,16.2
2022-09-03T02:17:30.127Z,16.2
2022-09-03T02:18:32.148Z,16.2
2022-09-03T02:19:30.139Z,16.2
2022-09-03T02:20:30.142Z,16.1
2022-09-03T02:21:30.141Z,16
2022-09-03T02:22:30.111Z,16
2022-09-03T02:23:30.123Z,16.1
2022-09-03T02:24:30.164Z,16.1
2022-09-03T02:25:30.108Z,16
2022-09-03T02:26:30.128Z,16
2022-09-03T02:27:30.187Z,16
2022-09-03T02:28:30.300Z,16
2022-09-03T02:29:30.135Z,16
2022-09-03T02:30:30.183Z,16.2
2022-09-03T02:31:30.153Z,16.2
2022-09-03T02:32:30.121Z,16.2
2022-09-03T02:33:30.122Z,16.2
2022-09-03T02:34:30.157Z,16.1
2022-09-03T02:35:30.134Z,16.1
2022-09-03T02:36:30.124Z,16.1
2022-09-03T02:37:30.132Z,16.1
2022-09-03T02:38:30.128Z,16
2022-09-03T02:39:30.188Z,16
2022-09-03T02:40:30.143Z,16.1
2022-09-03T02:41:30.161Z,16.1
2022-09-03T02:42:30.141Z,16
2022-09-03T02:43:30.153Z,16
2022-09-03T02:44:30.120Z,16
2022-09-03T02:45:30.146Z,16
2022-09-03T02:46:30.238Z,16.1
2022-09-03T02:47:30.144Z,16.1
2022-09-03T02:48:30.158Z,16.2
2022-09-03T02:49:30.115Z,16.2
2022-09-03T02:50:30.123Z,16.1
2022-09-03T02:51:30.205Z,16.2
2022-09-03T02:52:30.136Z,16.1
2022-09-03T02:53:30.140Z,16.1
2022-09-03T02:54:30.130Z,16.1
2022-09-03T02:55:30.144Z,16.1
2022-09-03T02:56:30.126Z,16.1
2022-09-03T02:57:30.132Z,16.1
2022-09-03T02:58:30.282Z,16
2022-09-03T02:59:30.131Z,16
2022-09-03T03:00:30.143Z,16
2022-09-03T03:01:30.181Z,16
2022-09-03T03:02:30.221Z,16.1
2022-09-03T03:03:30.132Z,16.1
2022-09-03T03:04:30.141Z,16
2022-09-03T03:05:30.126Z,16.1
2022-09-03T03:06:30.143Z,16
2022-09-03T03:07:30.147Z,16
2022-09-03T03:08:30.137Z,16
2022-09-03T03:09:30.161Z,16
2022-09-03T03:10:30.136Z,16
2022-09-03T03:11:30.176Z,16.1
2022-09-03T03:12:30.138Z,16.1
2022-09-03T03:13:30.127Z,16
2022-09-03T03:14:30.147Z,16
2022-09-03T03:15:30.165Z,15.9
2022-09-03T03:16:30.178Z,15.9
2022-09-03T03:17:30.151Z,15.9
2022-09-03T03:18:30.135Z,15.9
2022-09-03T03:19:30.130Z,16
2022-09-03T03:20:30.157Z,16
2022-09-03T03:21:30.128Z,16.1
2022-09-03T03:22:30.165Z,16
2022-09-03T03:23:30.143Z,16
2022-09-03T03:24:30.132Z,16
2022-09-03T03:25:32.208Z,16
2022-09-03T03:26:30.147Z,16
2022-09-03T03:27:30.147Z,16
2022-09-03T03:28:30.138Z,16
2022-09-03T03:29:30.161Z,16
2022-09-03T03:30:30.201Z,16
2022-09-03T03:31:30.158Z,16
2022-09-03T03:32:30.153Z,15.9
2022-09-03T03:33:30.152Z,15.9
2022-09-03T03:34:30.137Z,15.9
2022-09-03T03:35:30.138Z,16
2022-09-03T03:36:30.176Z,16
2022-09-03T03:37:30.128Z,16
2022-09-03T03:38:30.203Z,16
2022-09-03T03:39:30.173Z,16.1
2022-09-03T03:40:30.128Z,16
2022-09-03T03:41:30.141Z,16.1
2022-09-03T03:42:30.126Z,16
2022-09-03T03:43:30.160Z,16.1
2022-09-03T03:44:30.146Z,16
2022-09-03T03:45:30.133Z,16
2022-09-03T03:46:30.149Z,16
2022-09-03T03:47:30.131Z,15.9
2022-09-03T03:48:30.128Z,15.9
2022-09-03T03:49:30.144Z,15.8
2022-09-03T03:50:30.159Z,15.8
2022-09-03T03:51:30.138Z,15.9
2022-09-03T03:52:30.158Z,15.9
2022-09-03T03:53:30.173Z,15.9
2022-09-03T03:54:30.146Z,15.9
2022-09-03T03:55:30.747Z,15.9
2022-09-03T03:56:30.151Z,15.8
2022-09-03T03:57:30.173Z,15.9
2022-09-03T03:58:30.141Z,15.9
2022-09-03T03:59:30.135Z,15.9
2022-09-03T04:00:30.144Z,15.9
2022-09-03T04:01:30.237Z,15.8
2022-09-03T04:02:30.204Z,15.8
2022-09-03T04:03:30.170Z,15.8
2022-09-03T04:04:30.216Z,15.8
2022-09-03T04:05:33.603Z,15.9
2022-09-03T04:06:30.142Z,15.9
2022-09-03T04:07:30.175Z,15.9
2022-09-03T04:08:30.180Z,16
2022-09-03T04:09:30.173Z,16.1
2022-09-03T04:10:30.182Z,16.2
2022-09-03T04:11:30.150Z,16.1
2022-09-03T04:12:30.193Z,16.1
2022-09-03T04:13:30.138Z,16.1
2022-09-03T04:14:30.194Z,16.1
2022-09-03T04:15:30.254Z,16.2
2022-09-03T04:16:30.221Z,16.1
2022-09-03T04:17:30.214Z,16.1
2022-09-03T04:18:30.224Z,16.1
2022-09-03T04:19:30.177Z,16.3
2022-09-03T04:20:30.132Z,16.3
2022-09-03T04:21:30.140Z,16.3
2022-09-03T04:22:30.137Z,16.3
2022-09-03T04:23:30.154Z,16.3
2022-09-03T04:24:30.166Z,16.3
2022-09-03T04:25:30.126Z,16.3
2022-09-03T04:26:30.170Z,16.3
2022-09-03T04:27:30.189Z,16.3
2022-09-03T04:28:30.275Z,16.2
2022-09-03T04:29:30.191Z,16.2
2022-09-03T04:30:30.283Z,16.2
2022-09-03T04:31:30.157Z,16.2
2022-09-03T04:32:32.217Z,16.2
2022-09-03T04:33:30.307Z,16.1
2022-09-03T04:34:30.224Z,16.1
2022-09-03T04:35:30.235Z,16.1
2022-09-03T04:36:30.165Z,16.1
2022-09-03T04:37:30.149Z,16
2022-09-03T04:38:30.149Z,16
2022-09-03T04:39:30.226Z,16
2022-09-03T04:40:30.173Z,16
2022-09-03T04:41:30.181Z,16.2
2022-09-03T04:42:30.143Z,16.1
2022-09-03T04:43:30.173Z,16
2022-09-03T04:44:30.201Z,16.1
2022-09-03T04:45:30.314Z,16.2
2022-09-03T04:46:30.238Z,16.1
2022-09-03T04:47:30.200Z,16.1
2022-09-03T04:48:30.160Z,16.1
2022-09-03T04:49:30.215Z,16.1
2022-09-03T04:50:30.136Z,16.2
2022-09-03T04:51:30.257Z,16.2
2022-09-03T04:52:30.322Z,16.2
2022-09-03T04:53:30.394Z,16.2
2022-09-03T04:54:30.532Z,16.1
2022-09-03T04:55:30.454Z,16.1
2022-09-03T04:56:30.551Z,16.2
2022-09-03T04:57:30.190Z,16.2
2022-09-03T04:58:30.187Z,16.2
2022-09-03T04:59:30.173Z,16.2
2022-09-03T05:00:30.149Z,16.2
2022-09-03T05:01:30.303Z,16.1
2022-09-03T05:02:30.274Z,16.2
2022-09-03T05:03:30.224Z,16.3
2022-09-03T05:04:30.695Z,16.3
2022-09-03T05:05:31.217Z,16.4
2022-09-03T05:06:30.853Z,16.4
2022-09-03T05:07:30.171Z,16.3
2022-09-03T05:08:30.158Z,16.4
2022-09-03T05:09:30.152Z,16.5
2022-09-03T05:10:30.160Z,16.5
2022-09-03T05:11:30.204Z,16.5
2022-09-03T05:12:30.177Z,16.4
2022-09-03T05:13:30.151Z,16.5
2022-09-03T05:14:30.279Z,16.5
2022-09-03T05:15:30.195Z,16.6
2022-09-03T05:16:30.456Z,16.7
2022-09-03T05:17:30.209Z,16.7
2022-09-03T05:18:30.136Z,16.6
2022-09-03T05:19:30.221Z,16.7
2022-09-03T05:20:30.235Z,16.7
2022-09-03T05:21:30.155Z,16.6
2022-09-03T05:22:30.166Z,16.7
2022-09-03T05:23:34.301Z,16.7
2022-09-03T05:24:30.291Z,16.7
2022-09-03T05:25:30.232Z,16.7
2022-09-03T05:26:30.157Z,16.7
2022-09-03T05:27:30.167Z,16.7
2022-09-03T05:28:30.211Z,16.8
2022-09-03T05:29:30.207Z,16.9
2022-09-03T05:30:30.219Z,16.9
2022-09-03T05:31:30.331Z,17
2022-09-03T05:32:30.186Z,17
2022-09-03T05:33:30.157Z,17
2022-09-03T05:34:30.151Z,16.9
2022-09-03T05:35:30.472Z,17
2022-09-03T05:36:30.251Z,17
2022-09-03T05:37:30.358Z,17
2022-09-03T05:38:30.155Z,17
2022-09-03T05:39:32.442Z,17
2022-09-03T05:40:30.183Z,16.9
2022-09-03T05:41:30.193Z,17
2022-09-03T05:42:30.193Z,16.9
2022-09-03T05:43:30.201Z,17
2022-09-03T05:44:30.154Z,17
2022-09-03T05:45:30.264Z,17.1
2022-09-03T05:46:30.209Z,16.9
2022-09-03T05:47:30.216Z,17
2022-09-03T05:48:30.223Z,16.9
2022-09-03T05:49:30.231Z,17
2022-09-03T05:50:30.140Z,17
2022-09-03T05:51:30.178Z,17.1
2022-09-03T05:52:30.152Z,17.1
2022-09-03T05:53:30.183Z,17.1
2022-09-03T05:54:30.149Z,17.2
2022-09-03T05:55:30.178Z,17.2
2022-09-03T05:56:30.155Z,17.2
2022-09-03T05:57:30.159Z,17.2
2022-09-03T05:58:30.195Z,17.2
2022-09-03T05:59:30.187Z,17.3
2022-09-03T06:00:30.210Z,17.4
2022-09-03T06:01:30.514Z,17.4
2022-09-03T06:02:30.273Z,17.3
2022-09-03T06:03:30.326Z,17.4
2022-09-03T06:04:30.234Z,17.4
2022-09-03T06:05:30.150Z,17.5
2022-09-03T06:06:30.150Z,17.5
2022-09-03T06:07:30.255Z,17.5
2022-09-03T06:08:30.179Z,17.5
2022-09-03T06:09:30.161Z,17.4
2022-09-03T06:10:36.458Z,17.5
2022-09-03T06:11:30.174Z,17.5
2022-09-03T06:12:30.274Z,17.5
2022-09-03T06:13:30.337Z,17.5
2022-09-03T06:14:30.287Z,17.5
2022-09-03T06:15:30.191Z,17.5
2022-09-03T06:16:31.607Z,17.6
2022-09-03T06:17:30.196Z,17.7
2022-09-03T06:18:31.835Z,17.7
2022-09-03T06:19:30.143Z,17.6
2022-09-03T06:20:33.832Z,17.6
2022-09-03T06:21:30.175Z,17.6
2022-09-03T06:22:30.612Z,17.7
2022-09-03T06:23:30.174Z,17.8
2022-09-03T06:24:30.162Z,17.7
2022-09-03T06:25:30.165Z,17.8
2022-09-03T06:26:30.175Z,17.8
2022-09-03T06:27:35.192Z,17.9
2022-09-03T06:28:30.280Z,17.9
2022-09-03T06:29:30.188Z,18
2022-09-03T06:30:30.152Z,17.9
2022-09-03T06:31:30.272Z,17.9
2022-09-03T06:32:30.153Z,18
2022-09-03T06:33:30.170Z,18
2022-09-03T06:34:30.275Z,18
2022-09-03T06:35:30.208Z,18
2022-09-03T06:36:30.229Z,18
2022-09-03T06:37:30.227Z,18.1
2022-09-03T06:38:30.241Z,18.2
2022-09-03T06:39:30.294Z,18.2
2022-09-03T06:40:30.346Z,18.1
2022-09-03T06:41:30.231Z,18.1
2022-09-03T06:42:30.179Z,18
2022-09-03T06:43:30.200Z,18
2022-09-03T06:44:30.307Z,17.9
2022-09-03T06:45:30.300Z,18
2022-09-03T06:46:32.209Z,18
2022-09-03T06:47:30.176Z,17.9
2022-09-03T06:48:30.211Z,18
2022-09-03T06:49:30.210Z,18.1
2022-09-03T06:50:33.984Z,18.1
2022-09-03T06:51:30.319Z,18.3
2022-09-03T06:52:30.167Z,18.4
2022-09-03T06:53:31.960Z,18.5
2022-09-03T06:54:30.231Z,18.7
2022-09-03T06:55:30.238Z,18.8
2022-09-03T06:56:30.164Z,18.8
2022-09-03T06:57:30.252Z,18.8
2022-09-03T06:58:30.191Z,18.8
2022-09-03T06:59:30.176Z,18.7
2022-09-03T07:00:31.753Z,18.6
2022-09-03T07:01:30.353Z,18.8
2022-09-03T07:02:30.183Z,19
2022-09-03T07:03:30.297Z,19.2
2022-09-03T07:04:30.292Z,19.3
2022-09-03T07:05:30.212Z,19.2
2022-09-03T07:06:30.208Z,19.3
2022-09-03T07:07:30.231Z,19.4
2022-09-03T07:08:30.231Z,19.5
2022-09-03T07:09:30.643Z,19.7
2022-09-03T07:10:49.383Z,19.7
2022-09-03T07:11:30.256Z,19.7
2022-09-03T07:12:30.159Z,19.7
2022-09-03T07:13:30.161Z,19.7
2022-09-03T07:14:30.162Z,19.8
2022-09-03T07:15:30.301Z,19.8
2022-09-03T07:16:30.380Z,19.8
2022-09-03T07:17:30.197Z,19.9
2022-09-03T07:18:31.021Z,19.7
2022-09-03T07:19:30.212Z,19.6
2022-09-03T07:20:35.327Z,19.5
2022-09-03T07:21:30.380Z,19.3
2022-09-03T07:22:31.310Z,19.2
2022-09-03T07:23:30.237Z,19.1
2022-09-03T07:24:30.339Z,19.1
2022-09-03T07:25:30.248Z,19.1
2022-09-03T07:26:30.600Z,19.2
2022-09-03T07:27:30.157Z,19.4
2022-09-03T07:28:30.173Z,19.4
2022-09-03T07:29:30.281Z,19.4
2022-09-03T07:30:30.180Z,19.5
2022-09-03T07:31:30.253Z,19.3
2022-09-03T07:32:30.206Z,19.3
2022-09-03T07:33:33.674Z,19.4
2022-09-03T07:34:30.188Z,19.3
2022-09-03T07:35:30.210Z,19.2
2022-09-03T07:36:35.271Z,19.3
2022-09-03T07:37:30.237Z,19.1
2022-09-03T07:38:30.224Z,19.1
2022-09-03T07:39:30.271Z,19.1
2022-09-03T07:40:30.177Z,18.9
2022-09-03T07:41:30.193Z,19
2022-09-03T07:42:30.269Z,18.9
2022-09-03T07:43:30.424Z,19
2022-09-03T07:44:30.183Z,19.1
2022-09-03T07:45:30.304Z,19
2022-09-03T07:46:30.255Z,19
2022-09-03T07:47:30.191Z,19.1
2022-09-03T07:48:32.262Z,19.1
2022-09-03T07:49:30.438Z,19.2
2022-09-03T07:50:30.954Z,19.2
2022-09-03T07:51:30.167Z,19.2
2022-09-03T07:52:30.213Z,19.2
2022-09-03T07:53:30.240Z,19.2
2022-09-03T07:54:30.176Z,19.2
2022-09-03T07:55:30.330Z,19.1
2022-09-03T07:56:30.256Z,19.2
2022-09-03T07:57:30.343Z,19.2
2022-09-03T07:58:30.173Z,19.2
2022-09-03T07:59:30.194Z,19
2022-09-03T08:00:30.335Z,19
2022-09-03T08:01:30.281Z,19
2022-09-03T08:02:30.432Z,19.1
2022-09-03T08:03:30.281Z,19.1
2022-09-03T08:04:30.209Z,19.1
2022-09-03T08:05:30.199Z,19.2
2022-09-03T08:06:30.175Z,19.2
2022-09-03T08:07:30.316Z,19
2022-09-03T08:08:33.667Z,19
2022-09-03T08:09:30.183Z,18.9
2022-09-03T08:10:30.218Z,19.1
2022-09-03T08:11:30.249Z,19.2
2022-09-03T08:12:30.234Z,19.1
2022-09-03T08:13:30.179Z,19.2
2022-09-03T08:14:35.480Z,19.2
2022-09-03T08:15:30.252Z,19.2
2022-09-03T08:16:30.301Z,19.2
2022-09-03T08:17:30.382Z,19.2
2022-09-03T08:18:30.281Z,19.2
2022-09-03T08:19:30.580Z,19.2
2022-09-03T08:20:30.170Z,19.1
2022-09-03T08:21:30.206Z,19.1
2022-09-03T08:22:30.199Z,19.2
2022-09-03T08:23:30.202Z,19.2
2022-09-03T08:24:30.322Z,19.2
2022-09-03T08:25:30.218Z,19.1
2022-09-03T08:26:30.559Z,19.1
2022-09-03T08:27:30.229Z,19
2022-09-03T08:28:30.175Z,19
2022-09-03T08:29:30.179Z,19.1
2022-09-03T08:30:30.163Z,19.2
2022-09-03T08:31:30.437Z,19.2
2022-09-03T08:32:30.172Z,19.1
2022-09-03T08:33:30.296Z,19.1
2022-09-03T08:34:30.197Z,19.1
2022-09-03T08:35:30.177Z,19.2
2022-09-03T08:36:30.267Z,19.2
2022-09-03T08:37:30.199Z,19.2
2022-09-03T08:38:30.208Z,19.2
2022-09-03T08:39:30.245Z,19.2
2022-09-03T08:40:30.267Z,19.1
2022-09-03T08:41:30.227Z,19
2022-09-03T08:42:30.229Z,19
2022-09-03T08:43:30.793Z,19
2022-09-03T08:44:30.431Z,19
2022-09-03T08:45:30.247Z,18.9
2022-09-03T08:46:30.248Z,18.8
2022-09-03T08:47:30.180Z,18.9
2022-09-03T08:48:30.539Z,19.1
2022-09-03T08:49:30.268Z,19
2022-09-03T08:50:30.194Z,19.1
2022-09-03T08:51:30.220Z,19.2
2022-09-03T08:52:31.469Z,19.3
2022-09-03T08:53:30.201Z,19.1
2022-09-03T08:54:30.199Z,19.2
2022-09-03T08:55:30.207Z,19.3
2022-09-03T08:56:30.234Z,19.2
2022-09-03T08:57:30.227Z,19.3
2022-09-03T08:58:30.227Z,19.4
2022-09-03T08:59:32.869Z,19.4
2022-09-03T09:00:30.199Z,19.4
2022-09-03T09:01:30.266Z,19.5
2022-09-03T09:02:30.363Z,19.5
2022-09-03T09:03:30.259Z,19.6
2022-09-03T09:04:30.416Z,19.7
2022-09-03T09:05:30.470Z,19.7
2022-09-03T09:06:30.209Z,19.6
2022-09-03T09:07:30.700Z,19.6
2022-09-03T09:08:30.187Z,19.7
2022-09-03T09:09:30.197Z,19.7
2022-09-03T09:10:30.203Z,19.6
2022-09-03T09:11:30.443Z,19.7
2022-09-03T09:12:34.000Z,19.7
2022-09-03T09:13:30.248Z,19.8
2022-09-03T09:14:30.647Z,19.9
2022-09-03T09:15:30.190Z,20
2022-09-03T09:16:30.284Z,20
2022-09-03T09:17:30.271Z,20.1
2022-09-03T09:18:30.258Z,20.1
2022-09-03T09:19:30.372Z,20
2022-09-03T09:20:30.274Z,20.1
2022-09-03T09:21:30.186Z,20.2
2022-09-03T09:22:30.281Z,20.3
2022-09-03T09:23:30.187Z,20.4
2022-09-03T09:24:30.201Z,20.5
2022-09-03T09:25:30.187Z,20.4
2022-09-03T09:26:30.218Z,20.6
2022-09-03T09:27:30.208Z,20.5
2022-09-03T09:28:30.253Z,20.5
2022-09-03T09:29:30.232Z,20.5
2022-09-03T09:30:30.211Z,20.6
2022-09-03T09:31:30.285Z,20.7
2022-09-03T09:32:30.253Z,20.8
2022-09-03T09:33:30.194Z,20.7
2022-09-03T09:34:30.187Z,20.7
2022-09-03T09:35:30.177Z,20.8
2022-09-03T09:36:30.283Z,20.7
2022-09-03T09:37:30.282Z,20.8
2022-09-03T09:38:30.188Z,20.9
2022-09-03T09:39:30.325Z,21
2022-09-03T09:40:30.191Z,21
2022-09-03T09:41:30.219Z,21.1
2022-09-03T09:42:30.217Z,20.9
2022-09-03T09:43:30.218Z,21.1
2022-09-03T09:44:30.214Z,21.2
2022-09-03T09:45:30.221Z,21.3
2022-09-03T09:46:30.288Z,21.3
2022-09-03T09:47:30.234Z,21.4
2022-09-03T09:48:30.197Z,21.4
2022-09-03T09:49:30.179Z,21.4
2022-09-03T09:50:30.263Z,21.5
2022-09-03T09:51:30.186Z,21.5
2022-09-03T09:52:30.270Z,21.3
2022-09-03T09:53:30.214Z,21.5
2022-09-03T09:54:30.272Z,21.7
2022-09-03T09:55:30.283Z,21.8
2022-09-03T09:56:30.321Z,21.7
2022-09-03T09:57:30.209Z,21.6
2022-09-03T09:58:30.194Z,21.6
2022-09-03T09:59:30.198Z,21.5
2022-09-03T10:00:30.248Z,21.6
2022-09-03T10:01:30.314Z,21.7
2022-09-03T10:02:30.261Z,21.8
2022-09-03T10:03:30.276Z,21.7
2022-09-03T10:04:32.983Z,21.6
2022-09-03T10:05:30.240Z,21.2
2022-09-03T10:06:30.200Z,21
2022-09-03T10:07:30.250Z,21.2
2022-09-03T10:08:30.289Z,21.4
2022-09-03T10:09:30.899Z,21.4
2022-09-03T10:10:30.196Z,21.4
2022-09-03T10:11:30.300Z,21.3
2022-09-03T10:12:30.209Z,21.1
2022-09-03T10:13:30.305Z,21.2
2022-09-03T10:14:30.309Z,21.5
2022-09-03T10:15:30.250Z,21.6
2022-09-03T10:16:30.185Z,21.9
2022-09-03T10:17:36.881Z,22
2022-09-03T10:18:30.563Z,22.1
2022-09-03T10:19:30.200Z,22.1
2022-09-03T10:20:30.248Z,22
2022-09-03T10:21:30.205Z,22.1
2022-09-03T10:22:32.344Z,22.4
2022-09-03T10:23:30.189Z,22.5
2022-09-03T10:24:30.265Z,22.5
2022-09-03T10:25:30.268Z,22.6
2022-09-03T10:26:32.076Z,22.6
2022-09-03T10:27:32.080Z,22.6
2022-09-03T10:28:30.379Z,22.6
2022-09-03T10:29:30.410Z,22.7
2022-09-03T10:30:30.421Z,22.9
2022-09-03T10:31:30.419Z,23
2022-09-03T10:32:38.852Z,22.8
2022-09-03T10:33:30.539Z,22.8
2022-09-03T10:34:30.241Z,23
2022-09-03T10:35:30.332Z,23
2022-09-03T10:36:30.249Z,23.4
2022-09-03T10:37:30.238Z,23.2
2022-09-03T10:38:30.272Z,23.5
2022-09-03T10:39:30.274Z,23.5
2022-09-03T10:40:30.199Z,23.5
2022-09-03T10:41:30.294Z,23.6
2022-09-03T10:42:30.271Z,23.6
2022-09-03T10:43:30.188Z,23.8
2022-09-03T10:44:30.218Z,23.7
2022-09-03T10:45:30.296Z,23.7
2022-09-03T10:46:30.231Z,23.8
2022-09-03T10:47:30.190Z,23.9
2022-09-03T10:48:30.330Z,23.9
2022-09-03T10:49:30.221Z,24.1
2022-09-03T10:50:30.229Z,24
2022-09-03T10:51:30.245Z,23.9
2022-09-03T10:52:30.261Z,24.2
2022-09-03T10:53:30.194Z,24.5
2022-09-03T10:54:30.258Z,24.3
2022-09-03T10:55:30.240Z,24.5
2022-09-03T10:56:30.296Z,24.7
2022-09-03T10:57:30.278Z,24.7
2022-09-03T10:58:30.246Z,24.4
2022-09-03T10:59:30.196Z,24.5
2022-09-03T11:00:30.197Z,24.5
2022-09-03T11:01:30.485Z,24.7
2022-09-03T11:02:30.410Z,24.6
2022-09-03T11:03:30.223Z,24.9
2022-09-03T11:04:30.210Z,25.1
2022-09-03T11:05:30.234Z,25.2
2022-09-03T11:06:30.235Z,25.3
2022-09-03T11:07:30.533Z,25.1
2022-09-03T11:08:30.284Z,25.3
2022-09-03T11:09:30.253Z,25.4
2022-09-03T11:10:30.931Z,25.6
2022-09-03T11:11:30.208Z,25.7
2022-09-03T11:12:30.269Z,25.8
2022-09-03T11:13:30.804Z,25.5
2022-09-03T11:14:30.388Z,25
2022-09-03T11:15:30.309Z,25.1
2022-09-03T11:16:30.208Z,25.1
2022-09-03T11:17:30.388Z,25.6
2022-09-03T11:18:30.220Z,25.9
2022-09-03T11:19:30.223Z,26.3
2022-09-03T11:20:30.322Z,26.7
2022-09-03T11:21:30.245Z,26.9
2022-09-03T11:22:30.206Z,27.4
2022-09-03T11:23:30.450Z,27.7
2022-09-03T11:24:30.238Z,27.6
2022-09-03T11:25:30.257Z,27.6
2022-09-03T11:26:30.225Z,27.3
2022-09-03T11:27:30.231Z,27.1
2022-09-03T11:28:30.270Z,27.1
2022-09-03T11:29:30.194Z,27.1
2022-09-03T11:30:35.348Z,27
2022-09-03T11:31:30.291Z,27.3
2022-09-03T11:32:30.268Z,27.7
2022-09-03T11:33:30.298Z,27.8
2022-09-03T11:34:32.279Z,27.8
2022-09-03T11:35:30.349Z,27.8
2022-09-03T11:36:30.214Z,27.8
2022-09-03T11:37:30.217Z,27.6
2022-09-03T11:38:30.221Z,27.5
2022-09-03T11:39:30.288Z,27.7
2022-09-03T11:40:30.242Z,27.3
2022-09-03T11:41:30.264Z,27.3
2022-09-03T11:42:30.277Z,27.7
2022-09-03T11:43:30.206Z,28
2022-09-03T11:44:30.272Z,28.2
2022-09-03T11:45:30.278Z,28.3
2022-09-03T11:46:30.272Z,28.4
2022-09-03T11:47:30.399Z,28.6
2022-09-03T11:48:30.199Z,28.5
2022-09-03T11:49:30.220Z,28.3
2022-09-03T11:50:30.310Z,28
2022-09-03T11:51:30.271Z,27.6
2022-09-03T11:52:30.210Z,27.1
2022-09-03T11:53:30.244Z,27
2022-09-03T11:54:30.298Z,27
2022-09-03T11:55:32.677Z,27.1
2022-09-03T11:56:30.263Z,27.6
2022-09-03T11:57:30.253Z,27.9
2022-09-03T11:58:30.208Z,27.6
2022-09-03T11:59:30.397Z,27.9
2022-09-03T12:00:30.215Z,27.4
2022-09-03T12:01:30.212Z,27.1
2022-09-03T12:02:30.286Z,27.1
2022-09-03T12:03:30.230Z,27.1
2022-09-03T12:04:30.285Z,26.9
2022-09-03T12:05:30.239Z,26.6
2022-09-03T12:06:30.535Z,26.6
2022-09-03T12:07:30.320Z,26.7
2022-09-03T12:08:30.207Z,27.3
2022-09-03T12:09:30.341Z,27.8
2022-09-03T12:10:30.262Z,28.6
2022-09-03T12:11:30.235Z,29.5
2022-09-03T12:12:30.210Z,29.7
2022-09-03T12:13:30.214Z,29.4
2022-09-03T12:14:30.219Z,29
2022-09-03T12:15:30.235Z,28.2
2022-09-03T12:16:30.279Z,28
2022-09-03T12:17:30.216Z,27.5
2022-09-03T12:18:30.510Z,27.1
2022-09-03T12:19:30.214Z,26.8
2022-09-03T12:20:30.294Z,26.9
2022-09-03T12:21:30.243Z,27.4
2022-09-03T12:22:30.317Z,27.9
2022-09-03T12:23:30.318Z,28.8
2022-09-03T12:24:31.839Z,29.8
2022-09-03T12:25:30.332Z,30.5
2022-09-03T12:26:30.226Z,30.9
2022-09-03T12:27:30.232Z,30.9
2022-09-03T12:28:30.228Z,30.7
2022-09-03T12:29:31.111Z,31.1
2022-09-03T12:30:30.623Z,31
2022-09-03T12:31:30.255Z,31.2
2022-09-03T12:32:30.372Z,31.4
2022-09-03T12:33:30.215Z,31.4
2022-09-03T12:34:30.280Z,31.7
2022-09-03T12:35:59.118Z,31.5
2022-09-03T12:36:30.298Z,31.8
2022-09-03T12:38:30.219Z,31.9
2022-09-03T12:40:30.366Z,31.8
2022-09-03T12:41:30.321Z,32
2022-09-03T12:42:30.239Z,32.2
2022-09-03T12:43:38.669Z,32.2
2022-09-03T12:44:30.225Z,32.4
2022-09-03T12:46:09.844Z,32.5
2022-09-03T12:46:33.684Z,32.8
2022-09-03T12:47:36.093Z,32.7
2022-09-03T12:48:30.271Z,32.8
2022-09-03T12:49:30.848Z,32.6
2022-09-03T12:50:30.233Z,33
2022-09-03T12:52:30.310Z,33.1
2022-09-03T12:53:30.229Z,33.2
2022-09-03T12:54:30.722Z,33.2
2022-09-03T12:55:30.249Z,33.3
2022-09-03T12:56:30.339Z,33
2022-09-03T12:57:30.327Z,33.4
2022-09-03T12:58:30.240Z,33.6
2022-09-03T12:59:30.557Z,33.9
2022-09-03T13:00:30.240Z,34.3
2022-09-03T13:01:30.342Z,33.7
2022-09-03T13:02:30.309Z,33.7
2022-09-03T13:03:30.367Z,33.7
2022-09-03T13:04:30.276Z,33.6
2022-09-03T13:05:30.233Z,33.4
2022-09-03T13:06:30.230Z,33.8
2022-09-03T13:07:30.237Z,34.2
2022-09-03T13:08:30.264Z,34.4
2022-09-03T13:09:30.301Z,34.5
2022-09-03T13:10:30.355Z,34.4
2022-09-03T13:11:30.462Z,34.3
2022-09-03T13:12:32.035Z,34.5
2022-09-03T13:13:30.782Z,35
2022-09-03T13:14:30.275Z,35
2022-09-03T13:15:30.385Z,35.6
2022-09-03T13:16:31.272Z,35.7
2022-09-03T13:17:30.275Z,35.2
2022-09-03T13:18:30.286Z,35.4
2022-09-03T13:19:30.301Z,35.9
2022-09-03T13:20:30.272Z,35.7
2022-09-03T13:21:30.497Z,35.5
2022-09-03T13:22:30.267Z,36.1
2022-09-03T13:23:30.293Z,36.4
2022-09-03T13:24:30.240Z,36.3
2022-09-03T13:25:30.305Z,36.4
2022-09-03T13:26:30.329Z,36.5
2022-09-03T13:27:30.250Z,36.5
2022-09-03T13:28:30.330Z,36.7
2022-09-03T13:29:30.330Z,36.5
2022-09-03T13:30:30.300Z,36.9
2022-09-03T13:31:30.243Z,36.8
2022-09-03T13:32:30.268Z,36.6
2022-09-03T13:33:30.659Z,36.7
2022-09-03T13:34:30.315Z,36
2022-09-03T13:35:30.271Z,36.3
2022-09-03T13:36:30.318Z,36.5
2022-09-03T13:37:30.292Z,35.8
2022-09-03T13:38:32.866Z,35.2